Accueil
METAR-TAF:

METAR-TAF

Aéroports :

Rheine, Allemagne

latitude: 52-18N, longitude: 007-23E, altitude: 40 m

Observation

Le bulletin a été fait il y a 31 minutes, à 10:20 UTC
Vent 3 kt de direction variable
Température 18°C
Humidité 88%
Pression 996 hPa

METAR: ETHE 291020Z AUTO VRB03KT //// // ////// 18/16 Q0996 ///

Heure: 12:51 (10:51 UTC)

Prévision

Le bulletin a été fait il y a 41 minutes, à 10:10 UTC
Prévision valable du 29 à 11 UTC au 29 à 20 UTC
Vent 5 kt de ouest/sud-ouest
Visibilité: 8000 m
Nuages épars à une hauteur de 1500 ft
Nuages fragmentés à une hauteur de 3000 ft
faibles averses de pluie
Temporairement
du 29 à 11 UTC au 29 à 20 UTC
Vent 8 kt de ouest
Visibilité: 4000 m
Nuages épars à une hauteur de 1000 ft
Nuages fragmentés à une hauteur de 1500 ft
averses de pluie

TAF: ETHE 291010Z 2911/2920 24005KT 8000 -SHRA SCT015 BKN030 TEMPO 2911/2920 27008KT 4000 SHRA SCT010 BKN015

Observations et prévisions météorologiques de plus de 4000 aéroports (messages METAR et TAF).

Les stations disponibles sont représentées par des disques jaunes et rouges sur la carte.

Passer la souris dessus pour voir le nom de la station.

Cliquer dessus pour voir les observations et prévisions météorologiques.

Pour changer de carte: cliquez sur les boutons verts avec une croix noire pour zoomer, sur le bouton vert avec un tiret pour effectuer un zoom arrière, ou sur les flèches vertes pour les cartes adjacentes.


METAR-TAF: